createdAt,value
2018-03-18T00:01:15.787Z,71.10
2018-03-18T00:03:19.135Z,72.00
2018-03-18T00:05:22.478Z,73.10
2018-03-18T00:07:26.250Z,70.70
2018-03-18T00:09:29.625Z,72.50
2018-03-18T00:11:33.041Z,70.80
2018-03-18T00:13:37.249Z,73.70
2018-03-18T00:15:40.621Z,73.70
2018-03-18T00:17:43.962Z,74.20
2018-03-18T00:19:47.577Z,74.50
2018-03-18T00:21:51.346Z,74.90
2018-03-18T00:23:54.927Z,73.60
2018-03-18T00:25:58.445Z,74.30
2018-03-18T00:28:02.821Z,75.40
2018-03-18T00:30:06.179Z,77.90
2018-03-18T00:32:09.522Z,75.40
2018-03-18T00:34:13.043Z,79.80
2018-03-18T00:36:16.597Z,79.90
2018-03-18T00:38:20.834Z,79.70
2018-03-18T00:40:24.422Z,79.70
2018-03-18T00:42:27.902Z,80.50
2018-03-18T00:44:31.267Z,82.90
2018-03-18T00:46:34.664Z,81.00
2018-03-18T00:48:40.395Z,80.00
2018-03-18T00:50:43.749Z,79.70
2018-03-18T00:52:48.017Z,81.90
2018-03-18T00:54:51.350Z,81.90
2018-03-18T00:56:54.681Z,79.40
2018-03-18T00:58:58.133Z,79.60
2018-03-18T01:01:02.228Z,79.50
2018-03-18T01:03:05.615Z,79.60
2018-03-18T01:05:09.060Z,78.30
2018-03-18T01:07:12.420Z,79.00
2018-03-18T01:09:16.229Z,80.70
2018-03-18T01:11:19.566Z,78.80
2018-03-18T01:13:22.909Z,78.10
2018-03-18T01:15:27.265Z,78.50
2018-03-18T01:17:30.963Z,78.50
2018-03-18T01:19:34.314Z,77.70
2018-03-18T01:21:38.440Z,79.70
2018-03-18T01:23:41.801Z,79.70
2018-03-18T01:25:45.131Z,77.50
2018-03-18T01:27:48.483Z,78.30
2018-03-18T01:29:52.624Z,77.80
2018-03-18T01:31:56.015Z,78.00
2018-03-18T01:33:59.379Z,76.80
2018-03-18T01:36:03.270Z,77.90
2018-03-18T01:38:07.476Z,78.30
2018-03-18T01:40:10.801Z,78.40
2018-03-18T01:42:14.459Z,79.00
2018-03-18T01:44:19.075Z,78.20
2018-03-18T01:46:22.438Z,77.40
2018-03-18T01:48:25.795Z,78.90
2018-03-18T01:50:30.807Z,79.80
2018-03-18T01:52:34.570Z,79.70
2018-03-18T01:54:38.002Z,79.20
2018-03-18T01:56:41.333Z,78.80
2018-03-18T01:58:45.393Z,77.90
2018-03-18T02:00:48.738Z,77.70
2018-03-18T02:02:52.207Z,77.40
2018-03-18T02:04:55.573Z,78.90
2018-03-18T02:06:58.900Z,77.30
2018-03-18T02:09:03.048Z,80.10
2018-03-18T02:11:06.425Z,80.20
2018-03-18T02:13:09.797Z,79.60
2018-03-18T02:15:13.148Z,77.80
2018-03-18T02:17:16.507Z,77.40
2018-03-18T02:19:19.850Z,79.60
2018-03-18T02:21:23.185Z,77.60
2018-03-18T02:23:26.528Z,79.60
2018-03-18T02:25:30.846Z,77.30
2018-03-18T02:27:34.950Z,77.00
2018-03-18T02:29:38.298Z,76.90
2018-03-18T02:31:41.639Z,76.60
2018-03-18T02:33:45.747Z,76.60
2018-03-18T02:35:49.074Z,76.60
2018-03-18T02:37:52.437Z,77.00
2018-03-18T02:39:56.540Z,75.00
2018-03-18T02:41:59.874Z,74.80
2018-03-18T02:44:03.243Z,74.50
2018-03-18T02:46:06.573Z,75.80
2018-03-18T02:48:09.927Z,77.00
2018-03-18T02:50:13.264Z,77.10
2018-03-18T02:52:19.882Z,76.80
2018-03-18T02:54:23.217Z,76.80
2018-03-18T02:56:26.554Z,78.90
2018-03-18T02:58:30.663Z,78.90
2018-03-18T03:00:34.027Z,78.90
2018-03-18T03:02:38.416Z,79.70
2018-03-18T03:04:42.438Z,79.60
2018-03-18T03:06:45.804Z,77.10
2018-03-18T03:08:49.221Z,76.60
2018-03-18T03:10:52.546Z,77.00
2018-03-18T03:12:55.958Z,77.00
2018-03-18T03:15:00.062Z,76.60
2018-03-18T03:17:03.404Z,76.60
2018-03-18T03:19:06.778Z,77.20
2018-03-18T03:21:10.726Z,77.40
2018-03-18T03:23:14.104Z,77.60
2018-03-18T03:25:17.454Z,77.50
2018-03-18T03:27:20.790Z,76.20
2018-03-18T03:29:24.132Z,77.40
2018-03-18T03:31:28.371Z,77.00
2018-03-18T03:33:31.791Z,76.50
2018-03-18T03:35:35.961Z,76.50
2018-03-18T03:37:39.353Z,77.20
2018-03-18T03:39:42.757Z,77.60
2018-03-18T03:41:46.126Z,76.40
2018-03-18T03:43:49.456Z,75.80
2018-03-18T03:45:52.814Z,76.70
2018-03-18T03:47:56.198Z,76.40
2018-03-18T03:49:59.540Z,76.80
2018-03-18T03:52:03.720Z,79.50
2018-03-18T03:54:07.044Z,77.70
2018-03-18T03:56:10.389Z,77.10
2018-03-18T03:58:13.752Z,77.40
2018-03-18T04:00:17.877Z,78.00
2018-03-18T04:02:22.135Z,78.00
2018-03-18T04:04:25.498Z,77.30
2018-03-18T04:06:31.727Z,77.40
2018-03-18T04:08:35.837Z,77.90
2018-03-18T04:10:39.194Z,78.00
2018-03-18T04:12:43.855Z,77.80
2018-03-18T04:14:47.216Z,76.70
2018-03-18T04:16:50.567Z,77.60
2018-03-18T04:18:53.896Z,77.80
2018-03-18T04:20:57.222Z,78.10
2018-03-18T04:23:01.314Z,77.90
2018-03-18T04:25:04.667Z,77.90
2018-03-18T04:27:08.057Z,79.50
2018-03-18T04:29:11.701Z,77.40
2018-03-18T04:31:15.824Z,79.20
2018-03-18T04:33:19.225Z,79.30
2018-03-18T04:35:23.353Z,79.50
2018-03-18T04:37:26.665Z,79.50
2018-03-18T04:39:29.986Z,77.00
2018-03-18T04:41:33.311Z,77.30
2018-03-18T04:43:36.677Z,77.60
2018-03-18T04:45:40.769Z,77.60
2018-03-18T04:47:44.953Z,77.60
2018-03-18T04:49:48.303Z,80.10
2018-03-18T04:51:51.634Z,79.40
2018-03-18T04:53:54.983Z,77.80
2018-03-18T04:55:58.354Z,79.70
2018-03-18T04:58:01.730Z,77.20
2018-03-18T05:00:05.060Z,77.00
2018-03-18T05:02:08.439Z,79.40
2018-03-18T05:04:12.543Z,77.00
2018-03-18T05:06:17.728Z,76.90
2018-03-18T05:08:21.090Z,76.80
2018-03-18T05:10:24.441Z,77.30
2018-03-18T05:12:27.829Z,75.60
2018-03-18T05:14:31.170Z,76.20
2018-03-18T05:16:34.521Z,76.80
2018-03-18T05:18:40.177Z,77.00
2018-03-18T05:20:43.637Z,79.60
2018-03-18T05:22:46.992Z,76.80
2018-03-18T05:24:51.101Z,77.60
2018-03-18T05:26:54.471Z,79.00
2018-03-18T05:28:58.589Z,76.60
2018-03-18T05:31:02.694Z,76.80
2018-03-18T05:33:07.600Z,76.90
2018-03-18T05:35:10.938Z,78.80
2018-03-18T05:37:14.413Z,79.40
2018-03-18T05:39:18.539Z,77.60
2018-03-18T05:41:21.883Z,77.60
2018-03-18T05:43:25.996Z,77.70
2018-03-18T05:45:29.435Z,78.30
2018-03-18T05:47:32.790Z,78.90
2018-03-18T05:49:36.143Z,78.30
2018-03-18T05:51:39.479Z,78.60
2018-03-18T05:53:43.613Z,78.00
2018-03-18T05:55:47.211Z,77.90
2018-03-18T05:57:50.570Z,78.10
2018-03-18T05:59:53.952Z,78.10
2018-03-18T06:01:57.333Z,80.70
2018-03-18T06:04:02.063Z,79.10
2018-03-18T06:06:05.430Z,78.90
2018-03-18T06:08:09.533Z,79.20
2018-03-18T06:10:12.928Z,78.50
2018-03-18T06:12:16.281Z,79.50
2018-03-18T06:14:19.659Z,78.90
2018-03-18T06:16:23.013Z,78.40
2018-03-18T06:18:26.403Z,79.30
2018-03-18T06:20:29.723Z,81.00
2018-03-18T06:22:33.078Z,79.30
2018-03-18T06:24:36.837Z,80.10
2018-03-18T06:26:40.174Z,81.30
2018-03-18T06:28:43.522Z,82.50
2018-03-18T06:30:46.867Z,82.00
2018-03-18T06:32:50.189Z,82.90
2018-03-18T06:34:54.294Z,79.00
2018-03-18T06:36:58.420Z,79.30
2018-03-18T06:39:02.535Z,79.50
2018-03-18T06:41:05.923Z,79.60
2018-03-18T06:43:09.284Z,79.20
2018-03-18T06:45:12.710Z,79.20
2018-03-18T06:47:16.442Z,79.30
2018-03-18T06:49:19.866Z,81.90
2018-03-18T06:51:23.788Z,79.10
2018-03-18T06:53:27.924Z,79.90
2018-03-18T06:55:31.312Z,79.80
2018-03-18T06:57:36.626Z,79.70
2018-03-18T06:59:40.863Z,80.70
2018-03-18T07:01:45.685Z,79.20
2018-03-18T07:03:49.806Z,81.60
2018-03-18T07:05:55.967Z,81.70
2018-03-18T07:07:59.908Z,80.10
2018-03-18T07:10:03.258Z,80.50
2018-03-18T07:12:06.602Z,80.50
2018-03-18T07:14:10.303Z,82.10
2018-03-18T07:16:13.658Z,79.90
2018-03-18T07:18:16.996Z,79.40
2018-03-18T07:20:21.600Z,79.40
2018-03-18T07:22:24.935Z,79.50
2018-03-18T07:24:29.322Z,78.70
2018-03-18T07:26:32.710Z,78.60
2018-03-18T07:28:37.289Z,79.20
2018-03-18T07:30:42.880Z,79.10
2018-03-18T07:32:46.276Z,82.50
2018-03-18T07:34:49.747Z,79.30
2018-03-18T07:36:53.153Z,79.20
2018-03-18T07:38:57.326Z,78.40
2018-03-18T07:41:00.769Z,79.20
2018-03-18T07:43:04.142Z,79.20
2018-03-18T07:45:08.247Z,79.20
2018-03-18T07:47:11.633Z,79.30
2018-03-18T07:49:15.020Z,79.30
2018-03-18T07:51:18.357Z,79.30
2018-03-18T07:53:23.506Z,79.50
2018-03-18T07:55:27.598Z,79.40
2018-03-18T07:57:33.780Z,79.00
2018-03-18T07:59:38.146Z,79.10
2018-03-18T08:01:41.764Z,79.80
2018-03-18T08:03:45.980Z,82.40
2018-03-18T08:05:50.073Z,81.20
2018-03-18T08:07:53.430Z,81.40
2018-03-18T08:09:57.882Z,80.90
2018-03-18T08:12:01.258Z,79.40
2018-03-18T08:14:05.744Z,79.40
2018-03-18T08:16:09.111Z,79.40
2018-03-18T08:18:12.685Z,78.30
2018-03-18T08:20:16.902Z,79.20
2018-03-18T08:22:21.112Z,78.70
2018-03-18T08:24:24.509Z,78.70
2018-03-18T08:26:28.609Z,79.10
2018-03-18T08:28:32.719Z,80.30
2018-03-18T08:30:36.938Z,79.60
2018-03-18T08:32:41.107Z,80.90
2018-03-18T08:34:45.662Z,80.70
2018-03-18T08:36:49.429Z,81.30
2018-03-18T08:38:53.333Z,80.70
2018-03-18T08:40:56.700Z,80.70
2018-03-18T08:43:00.040Z,80.80
2018-03-18T08:45:03.431Z,81.00
2018-03-18T08:47:07.485Z,79.20
2018-03-18T08:49:12.418Z,79.30
2018-03-18T08:51:17.322Z,78.80
2018-03-18T08:53:21.299Z,79.00
2018-03-18T08:55:25.092Z,78.20
2018-03-18T08:57:28.533Z,77.80
2018-03-18T08:59:32.926Z,80.00
2018-03-18T09:01:36.317Z,79.80
2018-03-18T09:03:40.972Z,79.30
2018-03-18T09:05:45.539Z,77.70
2018-03-18T09:07:49.557Z,77.70
2018-03-18T09:09:55.946Z,77.00
2018-03-18T09:12:00.291Z,77.10
2018-03-18T09:14:04.852Z,78.00
2018-03-18T09:16:11.109Z,77.90
2018-03-18T09:18:15.029Z,78.00
2018-03-18T09:20:19.188Z,77.70
2018-03-18T09:22:22.612Z,77.60
2018-03-18T09:24:25.993Z,77.50
2018-03-18T09:26:30.295Z,78.10
2018-03-18T09:28:33.652Z,77.80
2018-03-18T09:30:37.022Z,77.40
2018-03-18T09:32:40.360Z,77.60
2018-03-18T09:34:45.018Z,78.40
2018-03-18T09:36:49.646Z,77.90
2018-03-18T09:38:53.264Z,78.00
2018-03-18T09:40:58.065Z,78.70
2018-03-18T09:45:47.375Z,81.30
2018-03-18T09:47:51.646Z,79.00
2018-03-18T09:49:55.005Z,79.00
2018-03-18T09:51:58.497Z,78.00
2018-03-18T09:54:02.635Z,78.00
2018-03-18T09:56:06.024Z,78.10
2018-03-18T09:58:09.771Z,77.50
2018-03-18T10:00:13.214Z,78.60
2018-03-18T10:02:17.741Z,78.50
2018-03-18T10:04:21.263Z,78.60
2018-03-18T10:06:26.504Z,78.00
2018-03-18T10:08:32.612Z,78.10
2018-03-18T10:10:36.288Z,79.70
2018-03-18T10:12:41.192Z,78.30
2018-03-18T10:14:44.757Z,78.40
2018-03-18T10:16:48.103Z,78.30
2018-03-18T10:18:52.367Z,78.70
2018-03-18T10:20:55.873Z,78.20
2018-03-18T10:22:59.229Z,77.80
2018-03-18T10:25:02.736Z,78.20
2018-03-18T10:27:07.571Z,81.20
2018-03-18T10:29:11.047Z,78.40
2018-03-18T10:31:14.452Z,78.30
2018-03-18T10:33:18.330Z,80.20
2018-03-18T10:35:22.002Z,80.90
2018-03-18T10:37:25.424Z,77.40
2018-03-18T10:39:29.533Z,78.10
2018-03-18T10:41:32.971Z,78.10
2018-03-18T10:43:37.486Z,77.60
2018-03-18T10:45:41.061Z,77.60
2018-03-18T10:47:44.742Z,80.00
2018-03-18T10:49:49.433Z,78.00
2018-03-18T10:51:52.860Z,78.00
2018-03-18T10:53:57.125Z,77.90
2018-03-18T10:56:00.486Z,78.00
2018-03-18T10:58:06.235Z,78.00
2018-03-18T11:00:09.652Z,77.80
2018-03-18T11:02:14.761Z,77.50
2018-03-18T11:04:18.132Z,79.90
2018-03-18T11:06:23.231Z,76.50
2018-03-18T11:08:26.605Z,76.30
2018-03-18T11:10:30.088Z,76.90
2018-03-18T11:12:33.702Z,75.70
2018-03-18T11:14:38.236Z,75.80
2018-03-18T11:16:41.663Z,75.80
2018-03-18T11:18:45.807Z,75.60
2018-03-18T11:20:49.199Z,75.60
2018-03-18T11:22:53.439Z,77.20
2018-03-18T11:24:56.768Z,77.70
2018-03-18T11:27:00.114Z,75.70
2018-03-18T11:29:03.454Z,76.10
2018-03-18T11:31:07.606Z,75.30
2018-03-18T11:33:10.967Z,75.30
2018-03-18T11:35:14.366Z,75.00
2018-03-18T11:37:17.718Z,74.60
2018-03-18T11:39:21.094Z,75.10
2018-03-18T11:41:24.468Z,74.80
2018-03-18T11:43:27.830Z,74.30
2018-03-18T11:45:31.169Z,75.10
2018-03-18T11:47:34.745Z,74.50
2018-03-18T11:49:38.136Z,74.90
2018-03-18T11:51:41.499Z,75.80
2018-03-18T11:53:44.845Z,75.10
2018-03-18T11:55:48.225Z,74.90
2018-03-18T11:57:51.585Z,75.00
2018-03-18T11:59:55.194Z,75.70
2018-03-18T12:01:58.721Z,75.90
2018-03-18T12:04:02.101Z,76.60
2018-03-18T12:06:05.488Z,75.30
2018-03-18T12:08:08.849Z,75.40
2018-03-18T12:10:12.416Z,75.40
2018-03-18T12:12:16.555Z,75.70
2018-03-18T12:14:19.939Z,75.50
2018-03-18T12:16:23.313Z,75.50
2018-03-18T12:18:26.709Z,75.80
2018-03-18T12:20:30.100Z,75.90
2018-03-18T12:22:33.522Z,78.80
2018-03-18T12:24:36.860Z,75.80
2018-03-18T12:26:41.078Z,78.00
2018-03-18T12:28:44.424Z,78.10
2018-03-18T12:30:47.766Z,78.10
2018-03-18T12:32:51.138Z,78.50
2018-03-18T12:34:54.518Z,75.40
2018-03-18T12:36:57.878Z,74.80
2018-03-18T12:39:01.238Z,75.40
2018-03-18T12:41:04.610Z,76.20
2018-03-18T12:43:19.797Z,76.00
2018-03-18T12:45:23.895Z,76.30
2018-03-18T12:47:28.578Z,75.80
2018-03-18T12:49:34.227Z,75.60
2018-03-18T12:51:38.325Z,75.70
2018-03-18T12:53:42.683Z,75.50
2018-03-18T12:55:46.082Z,75.50
2018-03-18T12:57:50.345Z,75.00
2018-03-18T12:59:53.720Z,75.10
2018-03-18T13:01:57.099Z,74.50
2018-03-18T13:04:00.512Z,74.00
2018-03-18T13:06:03.908Z,73.80
2018-03-18T13:08:07.315Z,74.50
2018-03-18T13:10:10.677Z,74.10
2018-03-18T13:12:14.258Z,74.20
2018-03-18T13:14:18.415Z,75.90
2018-03-18T13:16:21.794Z,76.00
2018-03-18T13:18:25.330Z,73.30
2018-03-18T13:20:28.845Z,77.00
2018-03-18T13:22:32.213Z,73.80
2018-03-18T13:24:35.608Z,74.00
2018-03-18T13:26:39.169Z,74.20
2018-03-18T13:28:42.548Z,77.20
2018-03-18T13:30:46.805Z,74.00
2018-03-18T13:32:50.477Z,72.70
2018-03-18T13:34:55.465Z,73.30
2018-03-18T13:36:59.801Z,73.40
2018-03-18T13:39:04.204Z,73.80
2018-03-18T13:41:07.544Z,73.70
2018-03-18T13:43:10.968Z,73.40
2018-03-18T13:45:15.152Z,73.70
2018-03-18T13:47:19.330Z,73.20
2018-03-18T13:49:22.764Z,72.80
2018-03-18T13:51:26.135Z,73.50
2018-03-18T13:53:30.259Z,72.90
2018-03-18T13:55:33.830Z,72.90
2018-03-18T13:57:37.402Z,73.30
2018-03-18T13:59:40.922Z,72.30
2018-03-18T14:01:44.689Z,71.40
2018-03-18T14:03:49.031Z,72.30
2018-03-18T14:05:53.204Z,72.30
2018-03-18T14:07:56.610Z,74.60
2018-03-18T14:10:00.293Z,71.50
2018-03-18T14:12:04.451Z,72.00
2018-03-18T14:14:09.786Z,74.60
2018-03-18T14:16:13.492Z,69.80
2018-03-18T14:18:16.944Z,69.80
2018-03-18T14:20:20.355Z,70.00
2018-03-18T14:22:23.830Z,69.40
2018-03-18T14:24:27.266Z,67.80
2018-03-18T14:26:30.672Z,69.20
2018-03-18T14:28:34.051Z,72.00
2018-03-18T14:30:38.200Z,71.10
2018-03-18T14:32:42.187Z,71.30
2018-03-18T14:34:45.602Z,71.90
2018-03-18T14:36:49.178Z,68.80
2018-03-18T14:38:52.621Z,66.60
2018-03-18T14:40:56.006Z,68.60
2018-03-18T14:43:00.260Z,66.60
2018-03-18T14:45:03.730Z,66.80
2018-03-18T14:47:07.454Z,65.60
2018-03-18T14:49:11.208Z,68.10
2018-03-18T14:51:15.982Z,66.10
2018-03-18T14:53:19.367Z,65.90
2018-03-18T14:55:22.715Z,66.70
2018-03-18T14:57:26.431Z,67.00
2018-03-18T14:59:30.321Z,69.40
2018-03-18T15:01:34.761Z,66.10
2018-03-18T15:03:38.349Z,66.10
2018-03-18T15:05:41.816Z,66.10
2018-03-18T15:07:46.215Z,66.10
2018-03-18T15:09:50.684Z,66.30
2018-03-18T15:11:54.108Z,66.20
2018-03-18T15:13:58.733Z,64.10
2018-03-18T15:16:02.394Z,66.00
2018-03-18T15:18:06.834Z,63.90
2018-03-18T15:20:11.223Z,65.10
2018-03-18T15:22:15.425Z,63.30
2018-03-18T15:24:19.663Z,65.50
2018-03-18T15:26:23.847Z,65.60
2018-03-18T15:28:27.864Z,63.40
2018-03-18T15:30:32.160Z,62.30
2018-03-18T15:32:36.414Z,62.60
2018-03-18T15:34:41.221Z,62.20
2018-03-18T15:36:45.132Z,62.20
2018-03-18T15:38:49.063Z,61.40
2018-03-18T15:40:52.553Z,61.50
2018-03-18T15:42:55.971Z,61.20
2018-03-18T15:44:59.518Z,62.00
2018-03-18T15:47:03.962Z,60.90
2018-03-18T15:49:07.497Z,60.70
2018-03-18T15:51:11.921Z,61.70
2018-03-18T15:53:15.714Z,61.90
2018-03-18T15:55:19.783Z,61.00
2018-03-18T15:57:23.456Z,61.00
2018-03-18T15:59:26.824Z,61.00
2018-03-18T16:01:30.318Z,60.10
2018-03-18T16:03:34.446Z,60.10
2018-03-18T16:05:37.838Z,60.00
2018-03-18T16:07:41.236Z,62.90
2018-03-18T16:09:44.610Z,60.40
2018-03-18T16:11:48.012Z,60.10
2018-03-18T16:13:51.777Z,59.80
2018-03-18T16:15:55.922Z,58.50
2018-03-18T16:18:00.263Z,58.80
2018-03-18T16:20:03.887Z,58.90
2018-03-18T16:22:08.039Z,56.90
2018-03-18T16:24:11.407Z,57.00
2018-03-18T16:26:15.533Z,58.40
2018-03-18T16:28:18.960Z,58.50
2018-03-18T16:30:34.281Z,57.10
2018-03-18T16:32:37.679Z,55.20
2018-03-18T16:34:41.083Z,55.70
2018-03-18T16:36:45.250Z,56.70
2018-03-18T16:38:48.883Z,56.70
2018-03-18T16:40:53.094Z,56.40
2018-03-18T16:42:56.674Z,56.30
2018-03-18T16:45:00.063Z,54.50
2018-03-18T16:47:03.458Z,54.70
2018-03-18T16:49:06.881Z,54.70
2018-03-18T16:51:11.121Z,53.30
2018-03-18T16:53:15.285Z,52.20
2018-03-18T16:55:19.466Z,53.40
2018-03-18T16:57:22.906Z,53.20
2018-03-18T16:59:26.370Z,52.30
2018-03-18T17:01:30.625Z,51.80
2018-03-18T17:03:34.085Z,51.90
2018-03-18T17:05:37.479Z,50.20
2018-03-18T17:07:40.928Z,47.80
2018-03-18T17:09:44.400Z,47.50
2018-03-18T17:11:47.898Z,45.20
2018-03-18T17:13:51.532Z,44.20
2018-03-18T17:15:55.415Z,43.30
2018-03-18T17:17:58.811Z,42.60
2018-03-18T17:20:02.230Z,41.90
2018-03-18T17:22:06.494Z,43.60
2018-03-18T17:24:09.936Z,43.40
2018-03-18T17:26:13.314Z,41.00
2018-03-18T17:28:16.714Z,42.50
2018-03-18T17:30:21.213Z,43.60
2018-03-18T17:32:24.713Z,43.50
2018-03-18T17:34:28.083Z,43.60
2018-03-18T17:36:31.503Z,43.10
2018-03-18T17:38:35.855Z,45.60
2018-03-18T17:40:40.338Z,45.60
2018-03-18T17:42:44.114Z,42.70
2018-03-18T17:44:59.319Z,42.30
2018-03-18T17:47:15.415Z,42.50
2018-03-18T17:49:31.184Z,42.50
2018-03-18T17:54:22.390Z,38.40
2018-03-18T17:56:37.349Z,40.80
2018-03-18T17:58:40.783Z,41.20
2018-03-18T18:00:44.173Z,38.20
2018-03-18T18:02:47.753Z,38.40
2018-03-18T18:04:51.248Z,37.10
2018-03-18T18:06:54.626Z,37.60
2018-03-18T18:08:59.207Z,37.30
2018-03-18T18:11:03.910Z,36.40
2018-03-18T18:13:07.908Z,37.90
2018-03-18T18:15:11.370Z,40.50
2018-03-18T18:17:14.736Z,36.60
2018-03-18T18:19:18.091Z,36.50
2018-03-18T18:21:21.483Z,37.40
2018-03-18T18:25:36.451Z,40.80
2018-03-18T18:27:40.383Z,39.40
2018-03-18T18:29:43.985Z,39.40
2018-03-18T18:31:48.841Z,35.80
2018-03-18T18:33:53.712Z,35.70
2018-03-18T18:35:58.362Z,37.60
2018-03-18T18:38:02.702Z,37.00
2018-03-18T18:40:06.841Z,37.00
2018-03-18T18:42:10.444Z,37.40
2018-03-18T18:44:13.952Z,37.50
2018-03-18T18:46:17.444Z,37.70
2018-03-18T18:48:21.800Z,37.30
2018-03-18T18:50:25.166Z,37.10
2018-03-18T18:52:29.368Z,40.90
2018-03-18T18:54:32.772Z,41.00
2018-03-18T18:56:38.149Z,37.50
2018-03-18T18:58:42.449Z,37.80
2018-03-18T19:00:46.333Z,37.80
2018-03-18T19:02:50.434Z,36.90
2018-03-18T19:04:55.731Z,36.60
2018-03-18T19:06:59.181Z,37.60
2018-03-18T19:09:04.268Z,37.80
2018-03-18T19:11:07.658Z,37.70
2018-03-18T19:13:10.995Z,36.50
2018-03-18T19:15:16.461Z,36.40
2018-03-18T19:17:20.302Z,36.40
2018-03-18T19:19:24.447Z,36.20
2018-03-18T19:21:28.570Z,36.40
2018-03-18T19:23:32.669Z,39.60
2018-03-18T19:25:36.824Z,35.20
2018-03-18T19:27:40.176Z,35.10
2018-03-18T19:29:44.585Z,39.00
2018-03-18T19:31:48.693Z,36.10
2018-03-18T19:33:52.860Z,35.40
2018-03-18T19:35:56.667Z,35.40
2018-03-18T19:38:02.798Z,37.80
2018-03-18T19:40:06.163Z,37.90
2018-03-18T19:42:10.279Z,37.60
2018-03-18T19:44:14.445Z,38.70
2018-03-18T19:46:20.130Z,36.30
2018-03-18T19:48:24.601Z,35.80
2018-03-18T19:50:29.765Z,35.90
2018-03-18T19:52:37.788Z,36.10
2018-03-18T19:54:42.965Z,35.80
2018-03-18T19:56:48.668Z,36.30
2018-03-18T19:58:53.376Z,36.90
2018-03-18T20:00:58.642Z,34.70
2018-03-18T20:03:02.006Z,33.50
2018-03-18T20:05:06.319Z,37.90
2018-03-18T20:07:12.689Z,38.60
2018-03-18T20:09:21.069Z,39.50
2018-03-18T20:11:27.146Z,37.30
2018-03-18T20:13:34.020Z,38.00
2018-03-18T20:15:37.465Z,38.10
2018-03-18T20:17:43.882Z,36.50
2018-03-18T20:19:47.343Z,36.50
2018-03-18T20:21:52.445Z,36.60
2018-03-18T20:23:56.047Z,39.70
2018-03-18T20:26:04.329Z,40.00
2018-03-18T20:28:07.785Z,39.70
2018-03-18T20:30:12.738Z,40.80
2018-03-18T20:32:16.166Z,39.90
2018-03-18T20:36:30.676Z,38.20
2018-03-18T20:38:34.809Z,36.20
2018-03-18T20:40:38.179Z,36.10
2018-03-18T20:42:42.312Z,36.20
2018-03-18T20:44:46.662Z,37.20
2018-03-18T20:46:50.613Z,38.50
2018-03-18T20:48:57.557Z,39.90
2018-03-18T20:51:02.162Z,42.20
2018-03-18T20:53:05.750Z,42.20
2018-03-18T20:55:09.103Z,39.80
2018-03-18T20:57:14.614Z,40.40
2018-03-18T20:59:18.722Z,40.30
2018-03-18T21:01:23.586Z,43.70
2018-03-18T21:03:29.942Z,42.10
2018-03-18T21:05:35.366Z,41.30
2018-03-18T21:07:39.724Z,41.00
2018-03-18T21:09:43.119Z,41.60
2018-03-18T21:11:46.492Z,43.30
2018-03-18T21:13:53.312Z,42.20
2018-03-18T21:15:58.453Z,42.70
2018-03-18T21:18:03.813Z,42.40
2018-03-18T21:20:08.144Z,42.00
2018-03-18T21:22:15.150Z,43.40
2018-03-18T21:24:19.522Z,45.40
2018-03-18T21:26:23.741Z,45.70
2018-03-18T21:28:30.711Z,44.10
2018-03-18T21:30:34.105Z,43.20
2018-03-18T21:32:38.238Z,43.60
2018-03-18T21:34:42.356Z,43.80
2018-03-18T21:36:45.718Z,43.80
2018-03-18T21:38:49.876Z,44.70
2018-03-18T21:40:55.270Z,44.60
2018-03-18T21:42:58.754Z,47.10
2018-03-18T21:45:02.288Z,46.20
2018-03-18T21:47:05.703Z,47.00
2018-03-18T21:49:09.948Z,48.40
2018-03-18T21:53:23.217Z,48.10
2018-03-18T21:55:28.224Z,48.00
2018-03-18T21:57:36.256Z,48.50
2018-03-18T21:59:45.124Z,48.60
2018-03-18T22:01:48.670Z,46.30
2018-03-18T22:03:57.275Z,46.80
2018-03-18T22:06:02.569Z,46.90
2018-03-18T22:08:07.556Z,46.90
2018-03-18T22:10:14.581Z,47.50
2018-03-18T22:12:21.438Z,47.50
2018-03-18T22:14:27.310Z,47.80
2018-03-18T22:16:32.978Z,48.60
2018-03-18T22:18:37.031Z,48.20
2018-03-18T22:20:42.429Z,47.80
2018-03-18T22:22:46.308Z,47.50
2018-03-18T22:24:50.638Z,47.80
2018-03-18T22:26:58.512Z,48.90
2018-03-18T22:29:03.771Z,48.90
2018-03-18T22:31:08.680Z,46.40
2018-03-18T22:33:13.327Z,47.80
2018-03-18T22:35:17.421Z,47.80
2018-03-18T22:37:22.781Z,47.70
2018-03-18T22:39:26.470Z,47.70
2018-03-18T22:41:32.054Z,47.80
2018-03-18T22:43:35.703Z,47.80
2018-03-18T22:45:39.834Z,47.60
2018-03-18T22:47:45.266Z,47.80
2018-03-18T22:49:52.742Z,49.10
2018-03-18T22:51:57.166Z,50.20
2018-03-18T22:54:01.711Z,50.00
2018-03-18T22:56:08.489Z,49.10
2018-03-18T22:58:12.922Z,46.50
2018-03-18T23:00:18.609Z,48.50
2018-03-18T23:02:22.943Z,47.40
2018-03-18T23:04:27.918Z,46.90
2018-03-18T23:06:32.093Z,49.30
2018-03-18T23:08:36.890Z,49.40
2018-03-18T23:10:45.862Z,45.70
2018-03-18T23:12:49.313Z,45.90
2018-03-18T23:14:54.511Z,48.70
2018-03-18T23:16:58.334Z,48.70
2018-03-18T23:19:03.136Z,48.20
2018-03-18T23:21:06.782Z,46.00
2018-03-18T23:23:11.935Z,46.30
2018-03-18T23:25:15.723Z,43.60
2018-03-18T23:27:20.854Z,44.80
2018-03-18T23:29:25.939Z,44.60
2018-03-18T23:31:31.609Z,45.10
2018-03-18T23:33:36.412Z,45.60
2018-03-18T23:35:41.196Z,45.60
2018-03-18T23:37:45.309Z,44.40
2018-03-18T23:39:48.666Z,44.10
2018-03-18T23:41:52.055Z,43.10
2018-03-18T23:43:55.472Z,43.90
2018-03-18T23:45:58.872Z,44.00
2018-03-18T23:48:02.975Z,43.00
2018-03-18T23:50:06.347Z,43.00
2018-03-18T23:52:09.687Z,42.90
2018-03-18T23:54:13.020Z,45.20
2018-03-18T23:56:16.394Z,46.20
2018-03-18T23:58:19.718Z,43.90
